This is the latest recevied weather packets stored in our database for station/object N3SBK. If no packets are shown the sender has not sent any weather packets the latest 10 day(s).
| Time | Temp. | Humidity | Pressure | Rain* | Wind** | Luminosity | Snow |
|---|---|---|---|---|---|---|---|
| 1787942314 | 26.11° C | 55% | 1011.7 hPa | 0 mm | - | 209 W/m² | - |
| 1787942010 | 25.56° C | 62% | 1011.6 hPa | 0 mm | - | 688 W/m² | - |
| 1787941705 | 26.67° C | 58% | 1011.6 hPa | 0 mm | - | 187 W/m² | - |
| 1787941403 | 26.11° C | 65% | 1011.7 hPa | 0 mm | - | 677 W/m² | - |
| 1787941103 | 26.67° C | 61% | 1011.8 hPa | 0 mm | - | 326 W/m² | - |
| 1787940798 | 26.67° C | 60% | 1011.7 hPa | 0 mm | - | 721 W/m² | - |
| 1787940495 | 26.67° C | 56% | 1011.9 hPa | 0 mm | - | 702 W/m² | - |
| 1787940190 | 25.56° C | 67% | 1011.8 hPa | 0 mm | - | 667 W/m² | - |
| 1787939889 | 25° C | 66% | 1011.8 hPa | 0 mm | - | 664 W/m² | - |
| 1787939579 | 25.56° C | 59% | 1012 hPa | 0 mm | - | 114 W/m² | - |
| 1787939279 | 25.56° C | 59% | 1012 hPa | 0 mm | - | 140 W/m² | - |
| 1787938974 | 24.44° C | 60% | 1012.1 hPa | 0 mm | - | 724 W/m² | - |
| 1787938672 | 24.44° C | 62% | 1012 hPa | 0 mm | - | 174 W/m² | - |
| 1787938369 | 25.56° C | 59% | 1011.9 hPa | 0 mm | - | 89 W/m² | - |
| 1787938069 | 25.56° C | 59% | 1012 hPa | 0 mm | - | 88 W/m² | - |
| 1787937765 | 25.56° C | 60% | 1012.1 hPa | 0 mm | - | 698 W/m² | - |
| 1787937461 | 26.11° C | 65% | 1011.9 hPa | 0 mm | - | 641 W/m² | - |
| 1787937157 | 25.56° C | 66% | 1012 hPa | 0 mm | - | 729 W/m² | - |
| 1787936856 | 25.56° C | 60% | 1011.9 hPa | 0 mm | - | 681 W/m² | - |
| 1787936551 | 25° C | 59% | 1012.1 hPa | 0 mm | - | 688 W/m² | - |
| 1787936250 | 25° C | 63% | 1012 hPa | 0 mm | - | 682 W/m² | - |
| 1787935946 | 25° C | 61% | 1012.1 hPa | 0 mm | - | 678 W/m² | - |
| 1787935646 | 24.44° C | 64% | 1012.3 hPa | 0 mm | - | 672 W/m² | - |
| 1787935343 | 24.44° C | 64% | 1012.3 hPa | 0 mm | - | 695 W/m² | - |
| 1787935038 | 24.44° C | 67% | 1012.1 hPa | 0 mm | - | 722 W/m² | - |
* Rain latest hour (hover to see other rain measurements)
** Current wind speed in m/s (hover to see current wind gust speed)